createdAt,value
2019-05-01T00:00:24.748Z,74.37
2019-05-01T00:03:49.121Z,74.73
2019-05-01T00:07:00.993Z,75.06
2019-05-01T00:10:07.238Z,74.69
2019-05-01T00:13:12.070Z,74.71
2019-05-01T00:16:16.910Z,74.25
2019-05-01T00:19:21.737Z,74.84
2019-05-01T00:22:26.186Z,74.14
2019-05-01T00:25:30.624Z,74.29
2019-05-01T00:28:35.317Z,74.48
2019-05-01T00:31:39.749Z,74.75
2019-05-01T00:34:44.194Z,75.06
2019-05-01T00:37:48.889Z,74.90
2019-05-01T00:40:53.624Z,75.45
2019-05-01T00:43:58.067Z,75.65
2019-05-01T00:47:02.778Z,75.84
2019-05-01T00:50:09.087Z,74.91
2019-05-01T00:53:13.880Z,74.70
2019-05-01T00:56:25.707Z,74.97
2019-05-01T00:59:32.674Z,74.89
2019-05-01T01:02:41.760Z,74.53
2019-05-01T01:05:46.197Z,75.00
2019-05-01T01:08:50.654Z,74.74
2019-05-01T01:11:55.085Z,75.04
2019-05-01T01:14:59.535Z,74.53
2019-05-01T01:18:04.264Z,74.68
2019-05-01T01:21:08.947Z,74.54
2019-05-01T01:24:13.780Z,73.79
2019-05-01T01:27:18.359Z,74.91
2019-05-01T01:30:22.871Z,73.58
2019-05-01T01:33:27.318Z,74.68
2019-05-01T01:36:31.758Z,73.92
2019-05-01T01:39:36.196Z,74.35
2019-05-01T01:42:41.770Z,74.50
2019-05-01T01:45:47.859Z,74.89
2019-05-01T01:48:52.475Z,74.79
2019-05-01T01:51:57.041Z,75.25
2019-05-01T01:55:01.805Z,75.58
2019-05-01T01:58:07.259Z,75.74
2019-05-01T02:01:19.114Z,75.74
2019-05-01T02:04:41.624Z,75.76
2019-05-01T02:07:46.437Z,75.54
2019-05-01T02:10:50.944Z,75.10
2019-05-01T02:13:56.917Z,75.51
2019-05-01T02:17:01.358Z,75.12
2019-05-01T02:20:08.646Z,74.44
2019-05-01T02:23:13.082Z,74.03
2019-05-01T02:26:20.107Z,75.09
2019-05-01T02:29:27.368Z,74.67
2019-05-01T02:32:32.536Z,74.87
2019-05-01T02:35:37.060Z,74.99
2019-05-01T02:38:43.874Z,75.55
2019-05-01T02:41:51.886Z,75.49
2019-05-01T02:44:59.791Z,75.27
2019-05-01T02:48:05.367Z,75.07
2019-05-01T02:51:11.294Z,73.93
2019-05-01T02:54:17.163Z,74.30
2019-05-01T02:57:23.977Z,73.63
2019-05-01T03:00:29.171Z,74.50
2019-05-01T03:03:34.012Z,74.65
2019-05-01T03:06:39.463Z,74.61
2019-05-01T03:09:44.601Z,74.87
2019-05-01T03:12:51.284Z,75.51
2019-05-01T03:15:56.171Z,75.49
2019-05-01T03:19:08.445Z,75.89
2019-05-01T03:22:29.467Z,75.37
2019-05-01T03:25:34.192Z,75.08
2019-05-01T03:28:39.507Z,75.37
2019-05-01T03:31:43.957Z,75.58
2019-05-01T03:34:52.653Z,75.47
2019-05-01T03:37:54.926Z,75.47
2019-05-01T03:40:59.971Z,75.34
2019-05-01T03:44:05.242Z,75.38
2019-05-01T03:47:10.050Z,75.76
2019-05-01T03:50:14.873Z,75.61
2019-05-01T03:53:19.310Z,75.55
2019-05-01T03:56:24.639Z,75.23
2019-05-01T03:59:29.209Z,75.25
2019-05-01T04:02:47.281Z,74.93
2019-05-01T04:05:52.149Z,74.95
2019-05-01T04:08:56.743Z,75.46
2019-05-01T04:12:02.210Z,76.03
2019-05-01T04:15:07.923Z,75.95
2019-05-01T04:18:12.546Z,76.28
2019-05-01T04:21:18.519Z,75.86
2019-05-01T04:24:23.709Z,76.03
2019-05-01T04:27:29.935Z,76.16
2019-05-01T04:30:39.023Z,76.17
2019-05-01T04:33:45.173Z,76.42
2019-05-01T04:36:49.930Z,76.46
2019-05-01T04:39:54.435Z,76.52
2019-05-01T04:42:59.322Z,76.53
2019-05-01T04:46:03.829Z,76.47
2019-05-01T04:49:08.623Z,77.09
2019-05-01T04:52:13.130Z,77.95
2019-05-01T04:55:17.971Z,76.96
2019-05-01T04:58:22.426Z,77.12
2019-05-01T05:01:30.637Z,77.48
2019-05-01T05:04:35.436Z,77.18
2019-05-01T05:07:39.875Z,77.07
2019-05-01T05:10:45.389Z,77.55
2019-05-01T05:14:08.171Z,76.77
2019-05-01T05:17:20.783Z,76.68
2019-05-01T05:20:25.960Z,77.47
2019-05-01T05:23:31.049Z,78.31
2019-05-01T05:26:36.013Z,78.61
2019-05-01T05:29:41.145Z,78.69
2019-05-01T05:32:47.719Z,78.94
2019-05-01T05:35:54.876Z,78.84
2019-05-01T05:39:02.302Z,78.90
2019-05-01T05:42:07.640Z,79.12
2019-05-01T05:45:12.093Z,78.90
2019-05-01T05:48:17.111Z,78.42
2019-05-01T05:51:40.302Z,77.87
2019-05-01T05:55:00.783Z,77.37
2019-05-01T05:58:08.537Z,76.59
2019-05-01T06:01:33.681Z,76.29
2019-05-01T06:04:42.702Z,75.37
2019-05-01T06:07:52.871Z,74.80
2019-05-01T06:11:00.492Z,74.78
2019-05-01T06:14:11.134Z,74.01
2019-05-01T06:17:15.346Z,73.80
2019-05-01T06:20:26.011Z,74.06
2019-05-01T06:23:34.465Z,71.81
2019-05-01T06:26:39.694Z,68.77
2019-05-01T06:29:45.249Z,65.23
2019-05-01T06:32:49.761Z,62.37
2019-05-01T06:35:54.596Z,61.67
2019-05-01T06:38:59.782Z,60.13
2019-05-01T06:42:09.918Z,60.38
2019-05-01T06:45:16.788Z,61.07
2019-05-01T06:48:28.981Z,60.18
2019-05-01T06:51:33.459Z,61.60
2019-05-01T06:54:38.047Z,61.21
2019-05-01T06:57:44.013Z,59.70
2019-05-01T07:00:51.536Z,60.58
2019-05-01T07:04:03.637Z,59.47
2019-05-01T07:07:06.836Z,59.43
2019-05-01T07:10:10.662Z,58.89
2019-05-01T07:13:15.196Z,58.52
2019-05-01T07:16:22.805Z,58.12
2019-05-01T07:19:45.349Z,57.28
2019-05-01T07:22:50.207Z,54.78
2019-05-01T07:25:54.941Z,57.27
2019-05-01T07:29:01.025Z,55.42
2019-05-01T07:32:06.427Z,53.74
2019-05-01T07:35:11.353Z,53.09
2019-05-01T07:38:16.417Z,52.42
2019-05-01T07:41:20.868Z,53.88
2019-05-01T07:44:30.086Z,52.53
2019-05-01T07:47:41.277Z,52.65
2019-05-01T07:50:46.237Z,52.31
2019-05-01T07:53:51.316Z,53.40
2019-05-01T07:56:58.719Z,53.18
2019-05-01T08:00:08.149Z,50.71
2019-05-01T08:03:10.621Z,51.95
2019-05-01T08:06:16.092Z,52.45
2019-05-01T08:09:21.305Z,51.59
2019-05-01T08:12:25.988Z,50.87
2019-05-01T08:15:32.675Z,50.54
2019-05-01T08:18:58.872Z,49.65
2019-05-01T08:22:05.270Z,50.54
2019-05-01T08:25:09.854Z,49.99
2019-05-01T08:28:33.301Z,48.34
2019-05-01T08:31:58.731Z,48.94
2019-05-01T08:35:03.907Z,49.24
2019-05-01T08:38:08.363Z,48.37
2019-05-01T08:41:13.058Z,48.20
2019-05-01T08:44:19.149Z,48.63
2019-05-01T08:47:27.565Z,45.80
2019-05-01T08:50:31.759Z,45.20
2019-05-01T08:53:36.486Z,43.81
2019-05-01T08:56:43.634Z,44.58
2019-05-01T08:59:47.383Z,45.49
2019-05-01T09:02:51.840Z,45.06
2019-05-01T09:05:57.386Z,42.98
2019-05-01T09:09:02.917Z,45.56
2019-05-01T09:12:11.927Z,44.00
2019-05-01T09:15:14.833Z,45.98
2019-05-01T09:18:19.283Z,43.71
2019-05-01T09:21:23.735Z,44.59
2019-05-01T09:24:29.432Z,44.58
2019-05-01T09:27:35.901Z,43.09
2019-05-01T09:30:44.559Z,41.84
2019-05-01T09:33:49.011Z,41.44
2019-05-01T09:36:53.775Z,44.04
2019-05-01T09:39:58.633Z,43.62
2019-05-01T09:43:03.338Z,44.41
2019-05-01T09:46:07.846Z,40.88
2019-05-01T09:49:14.354Z,41.67
2019-05-01T09:52:24.817Z,40.01
2019-05-01T09:55:30.146Z,39.35
2019-05-01T09:58:34.599Z,40.96
2019-05-01T10:01:39.116Z,38.88
2019-05-01T10:04:43.823Z,38.62
2019-05-01T10:07:48.267Z,38.82
2019-05-01T10:10:52.801Z,39.68
2019-05-01T10:13:58.425Z,39.50
2019-05-01T10:17:03.420Z,39.20
2019-05-01T10:20:08.781Z,37.90
2019-05-01T10:23:14.978Z,39.91
2019-05-01T10:26:23.917Z,37.52
2019-05-01T10:29:31.767Z,38.37
2019-05-01T10:32:38.179Z,38.10
2019-05-01T10:35:44.552Z,35.29
2019-05-01T10:38:49.283Z,38.18
2019-05-01T10:41:53.727Z,37.28
2019-05-01T10:44:58.249Z,38.65
2019-05-01T10:48:02.849Z,39.83
2019-05-01T10:51:07.591Z,37.17
2019-05-01T10:54:12.046Z,37.61
2019-05-01T10:57:16.559Z,37.60
2019-05-01T11:00:21.676Z,38.33
2019-05-01T11:03:26.128Z,35.36
2019-05-01T11:06:30.831Z,35.68
2019-05-01T11:09:35.273Z,34.35
2019-05-01T11:12:39.989Z,37.75
2019-05-01T11:15:44.435Z,33.07
2019-05-01T11:18:48.876Z,33.58
2019-05-01T11:21:53.330Z,35.10
2019-05-01T11:24:57.776Z,34.62
2019-05-01T11:28:02.216Z,34.35
2019-05-01T11:31:08.315Z,32.14
2019-05-01T11:34:17.101Z,33.54
2019-05-01T11:37:27.248Z,29.87
2019-05-01T11:40:36.079Z,29.65
2019-05-01T11:43:40.810Z,32.18
2019-05-01T11:46:45.334Z,31.96
2019-05-01T11:49:49.764Z,29.50
2019-05-01T11:52:54.208Z,33.25
2019-05-01T11:55:58.918Z,32.65
2019-05-01T11:59:03.367Z,32.83
2019-05-01T12:02:07.881Z,30.97
2019-05-01T12:05:12.698Z,31.48
2019-05-01T12:08:17.154Z,29.82
2019-05-01T12:11:23.605Z,33.36
2019-05-01T12:14:28.035Z,30.78
2019-05-01T12:17:34.381Z,34.66
2019-05-01T12:20:38.825Z,33.65
2019-05-01T12:23:43.274Z,31.55
2019-05-01T12:26:47.726Z,33.26
2019-05-01T12:29:52.493Z,32.48
2019-05-01T12:32:56.938Z,32.35
2019-05-01T12:36:03.017Z,34.15
2019-05-01T12:39:16.995Z,30.30
2019-05-01T12:42:28.783Z,32.63
2019-05-01T12:45:33.655Z,33.01
2019-05-01T12:48:38.388Z,31.43
2019-05-01T12:51:44.471Z,31.20
2019-05-01T12:54:52.094Z,30.97
2019-05-01T12:57:57.077Z,29.47
2019-05-01T13:01:01.517Z,33.34
2019-05-01T13:04:05.974Z,29.32
2019-05-01T13:07:10.961Z,28.90
2019-05-01T13:10:15.674Z,28.14
2019-05-01T13:13:20.125Z,30.01
2019-05-01T13:16:24.569Z,29.27
2019-05-01T13:19:29.021Z,29.03
2019-05-01T13:22:33.801Z,31.31
2019-05-01T13:25:38.305Z,29.91
2019-05-01T13:29:02.195Z,28.95
2019-05-01T13:32:14.411Z,30.64
2019-05-01T13:35:18.933Z,30.05
2019-05-01T13:38:23.664Z,29.83
2019-05-01T13:41:28.103Z,28.72
2019-05-01T13:44:32.552Z,29.44
2019-05-01T13:47:37.343Z,31.34
2019-05-01T13:50:42.222Z,31.05
2019-05-01T13:53:46.673Z,29.76
2019-05-01T13:56:51.119Z,32.06
2019-05-01T13:59:55.858Z,29.85
2019-05-01T14:03:00.305Z,29.58
2019-05-01T14:06:05.011Z,32.30
2019-05-01T14:09:11.362Z,29.50
2019-05-01T14:12:15.806Z,27.37
2019-05-01T14:15:20.249Z,29.10
2019-05-01T14:18:24.958Z,31.47
2019-05-01T14:21:31.332Z,28.71
2019-05-01T14:24:37.705Z,31.33
2019-05-01T14:27:42.142Z,26.83
2019-05-01T14:30:46.591Z,30.24
2019-05-01T14:33:51.034Z,30.04
2019-05-01T14:36:55.504Z,28.82
2019-05-01T14:40:00.225Z,27.12
2019-05-01T14:43:04.666Z,25.25
2019-05-01T14:46:09.234Z,27.82
2019-05-01T14:49:13.630Z,27.52
2019-05-01T14:52:18.155Z,26.27
2019-05-01T14:55:22.862Z,26.86
2019-05-01T14:58:27.588Z,26.29
2019-05-01T15:01:32.027Z,26.76
2019-05-01T15:04:36.474Z,29.62
2019-05-01T15:07:43.869Z,29.60
2019-05-01T15:10:47.340Z,28.76
2019-05-01T15:13:59.744Z,27.66
2019-05-01T15:17:21.646Z,28.87
2019-05-01T15:20:26.089Z,28.86
2019-05-01T15:23:30.528Z,31.02
2019-05-01T15:26:35.261Z,29.40
2019-05-01T15:29:39.986Z,28.18
2019-05-01T15:32:44.424Z,28.97
2019-05-01T15:35:48.871Z,28.36
2019-05-01T15:38:53.313Z,30.24
2019-05-01T15:42:05.063Z,28.63
2019-05-01T15:45:09.952Z,29.74
2019-05-01T15:48:14.923Z,29.95
2019-05-01T15:51:19.648Z,29.13
2019-05-01T15:54:24.084Z,29.14
2019-05-01T15:57:28.805Z,28.34
2019-05-01T16:00:33.255Z,28.24
2019-05-01T16:03:37.962Z,29.32
2019-05-01T16:06:42.411Z,29.62
2019-05-01T16:09:46.862Z,27.78
2019-05-01T16:12:52.937Z,29.25
2019-05-01T16:15:57.706Z,30.13
2019-05-01T16:19:02.435Z,29.19
2019-05-01T16:22:07.166Z,29.94
2019-05-01T16:25:12.307Z,28.58
2019-05-01T16:28:16.747Z,27.95
2019-05-01T16:31:21.193Z,29.31
2019-05-01T16:34:25.628Z,30.45
2019-05-01T16:37:30.067Z,31.23
2019-05-01T16:40:38.846Z,31.27
2019-05-01T16:43:43.562Z,31.72
2019-05-01T16:46:48.010Z,30.57
2019-05-01T16:49:52.451Z,30.57
2019-05-01T16:52:57.239Z,32.64
2019-05-01T16:56:01.965Z,32.56
2019-05-01T16:59:06.697Z,33.10
2019-05-01T17:02:24.536Z,33.75
2019-05-01T17:05:30.685Z,33.58
2019-05-01T17:08:37.143Z,32.65
2019-05-01T17:11:42.111Z,34.29
2019-05-01T17:14:46.837Z,34.52
2019-05-01T17:17:51.286Z,33.17
2019-05-01T17:20:55.872Z,33.25
2019-05-01T17:24:00.308Z,40.33
2019-05-01T17:27:04.751Z,43.35
2019-05-01T17:30:11.731Z,43.58
2019-05-01T17:33:20.608Z,45.39
2019-05-01T17:36:22.625Z,44.95
2019-05-01T17:39:27.060Z,43.43
2019-05-01T17:42:32.940Z,45.95
2019-05-01T17:45:37.670Z,45.96
2019-05-01T17:48:42.117Z,45.34
2019-05-01T17:51:47.526Z,47.20
2019-05-01T17:54:52.077Z,48.33
2019-05-01T17:57:56.520Z,48.97
2019-05-01T18:01:06.512Z,50.08
2019-05-01T18:04:18.023Z,49.52
2019-05-01T18:07:23.136Z,49.58
2019-05-01T18:10:27.865Z,49.92
2019-05-01T18:13:32.378Z,50.50
2019-05-01T18:16:37.128Z,50.95
2019-05-01T18:19:41.850Z,50.18
2019-05-01T18:22:46.063Z,50.84
2019-05-01T18:26:04.758Z,51.05
2019-05-01T18:29:18.799Z,51.79
2019-05-01T18:32:28.222Z,51.82
2019-05-01T18:35:32.736Z,51.98
2019-05-01T18:38:42.889Z,51.96
2019-05-01T18:41:55.165Z,52.24
2019-05-01T18:44:59.596Z,52.65
2019-05-01T18:48:04.422Z,52.78
2019-05-01T18:51:08.886Z,52.30
2019-05-01T18:54:13.336Z,52.52
2019-05-01T18:57:18.152Z,53.25
2019-05-01T19:00:22.595Z,53.45
2019-05-01T19:03:29.707Z,52.83
2019-05-01T19:06:41.102Z,53.31
2019-05-01T19:09:39.543Z,53.98
2019-05-01T19:12:43.998Z,53.72
2019-05-01T19:15:50.724Z,53.55
2019-05-01T19:18:55.467Z,54.00
2019-05-01T19:21:59.895Z,53.67
2019-05-01T19:25:05.025Z,54.80
2019-05-01T19:28:09.863Z,54.89
2019-05-01T19:31:14.723Z,54.81
2019-05-01T19:34:19.162Z,54.76
2019-05-01T19:37:24.947Z,54.49
2019-05-01T19:40:32.539Z,54.73
2019-05-01T19:43:40.469Z,55.04
2019-05-01T19:46:42.547Z,55.50
2019-05-01T19:49:47.000Z,55.50
2019-05-01T19:52:51.442Z,56.15
2019-05-01T19:55:56.235Z,55.96
2019-05-01T19:59:00.688Z,55.90
2019-05-01T20:02:07.463Z,56.58
2019-05-01T20:05:12.273Z,57.07
2019-05-01T20:08:17.308Z,56.48
2019-05-01T20:11:22.026Z,57.03
2019-05-01T20:14:26.494Z,57.89
2019-05-01T20:17:31.493Z,58.14
2019-05-01T20:20:35.938Z,58.22
2019-05-01T20:23:40.412Z,58.79
2019-05-01T20:26:44.825Z,58.79
2019-05-01T20:29:49.595Z,58.74
2019-05-01T20:32:58.273Z,59.55
2019-05-01T20:36:04.654Z,60.13
2019-05-01T20:39:08.940Z,59.95
2019-05-01T20:42:13.737Z,59.83
2019-05-01T20:45:19.650Z,60.26
2019-05-01T20:48:25.171Z,60.41
2019-05-01T20:51:29.865Z,60.86
2019-05-01T20:54:34.314Z,61.37
2019-05-01T20:57:49.577Z,62.06
2019-05-01T21:00:55.669Z,61.13
2019-05-01T21:04:09.180Z,61.74
2019-05-01T21:07:19.865Z,62.21
2019-05-01T21:10:29.814Z,62.07
2019-05-01T21:13:34.816Z,62.69
2019-05-01T21:16:39.633Z,63.02
2019-05-01T21:19:44.215Z,62.98
2019-05-01T21:22:48.873Z,62.91
2019-05-01T21:25:53.868Z,63.42
2019-05-01T21:28:58.583Z,63.28
2019-05-01T21:32:03.571Z,63.49
2019-05-01T21:35:08.226Z,63.25
2019-05-01T21:38:13.097Z,63.27
2019-05-01T21:41:18.420Z,63.93
2019-05-01T21:44:23.438Z,63.51
2019-05-01T21:47:27.882Z,63.65
2019-05-01T21:50:33.560Z,63.40
2019-05-01T21:53:42.684Z,62.48
2019-05-01T21:56:44.508Z,63.64
2019-05-01T21:59:51.281Z,63.32
2019-05-01T22:02:55.677Z,62.70
2019-05-01T22:06:00.122Z,63.09
2019-05-01T22:09:10.497Z,63.50
2019-05-01T22:12:14.430Z,64.93
2019-05-01T22:15:36.593Z,64.24
2019-05-01T22:18:57.633Z,65.08
2019-05-01T22:22:03.720Z,64.64
2019-05-01T22:25:19.234Z,64.41
2019-05-01T22:28:25.319Z,64.50
2019-05-01T22:31:52.901Z,64.38
2019-05-01T22:35:06.626Z,64.70
2019-05-01T22:38:11.072Z,65.14
2019-05-01T22:41:15.526Z,65.40
2019-05-01T22:44:20.315Z,65.14
2019-05-01T22:47:24.823Z,64.67
2019-05-01T22:50:29.266Z,64.96
2019-05-01T22:53:33.976Z,65.30
2019-05-01T22:56:38.714Z,64.53
2019-05-01T22:59:43.445Z,65.03
2019-05-01T23:02:47.879Z,65.07
2019-05-01T23:05:52.596Z,64.58
2019-05-01T23:08:57.324Z,64.80
2019-05-01T23:12:02.212Z,64.77
2019-05-01T23:15:10.402Z,64.89
2019-05-01T23:18:15.576Z,65.19
2019-05-01T23:21:21.012Z,65.17
2019-05-01T23:24:25.795Z,65.35
2019-05-01T23:27:30.788Z,65.12
2019-05-01T23:30:35.259Z,65.91
2019-05-01T23:33:39.699Z,66.16
2019-05-01T23:36:44.173Z,65.88
2019-05-01T23:39:48.933Z,65.84
2019-05-01T23:42:53.949Z,65.71
2019-05-01T23:45:58.512Z,65.28
2019-05-01T23:49:03.231Z,65.63
2019-05-01T23:52:07.964Z,66.27
2019-05-01T23:55:12.752Z,66.75
2019-05-01T23:58:17.519Z,67.29
